createdAt,value
2023-02-19T00:01:42.870Z,99774.46
2023-02-19T00:04:18.150Z,99769.15
2023-02-19T00:06:52.860Z,99760.16
2023-02-19T00:09:27.305Z,99759.30
2023-02-19T00:12:01.362Z,99760.25
2023-02-19T00:14:34.835Z,99763.21
2023-02-19T00:17:08.525Z,99764.88
2023-02-19T00:19:42.331Z,99761.38
2023-02-19T00:22:16.071Z,99757.42
2023-02-19T00:24:49.667Z,99756.55
2023-02-19T00:27:23.181Z,99755.30
2023-02-19T00:29:57.221Z,99757.39
2023-02-19T00:32:30.461Z,99759.48
2023-02-19T00:35:04.703Z,99757.70
2023-02-19T00:37:38.226Z,99756.34
2023-02-19T00:40:13.359Z,99753.52
2023-02-19T00:42:47.449Z,99747.60
2023-02-19T00:45:23.011Z,99749.21
2023-02-19T00:47:56.566Z,99749.70
2023-02-19T00:50:30.874Z,99751.42
2023-02-19T00:53:04.882Z,99749.83
2023-02-19T00:55:38.388Z,99755.63
2023-02-19T00:58:12.344Z,99756.64
2023-02-19T01:00:46.047Z,99762.73
2023-02-19T01:03:20.067Z,99760.88
2023-02-19T01:05:54.907Z,99762.83
2023-02-19T01:08:29.256Z,99759.52
2023-02-19T01:11:03.710Z,99757.05
2023-02-19T01:13:54.771Z,99754.07
2023-02-19T01:16:29.144Z,99748.38
2023-02-19T01:19:02.800Z,99750.58
2023-02-19T01:21:36.332Z,99749.56
2023-02-19T01:24:10.530Z,99749.67
2023-02-19T01:26:45.148Z,99749.84
2023-02-19T01:29:18.735Z,99743.70
2023-02-19T01:31:52.305Z,99741.88
2023-02-19T01:34:27.418Z,99739.73
2023-02-19T01:37:01.057Z,99738.58
2023-02-19T01:39:34.952Z,99743.40
2023-02-19T01:42:14.331Z,99744.27
2023-02-19T01:45:20.897Z,99748.02
2023-02-19T01:48:06.447Z,99751.64
2023-02-19T01:50:46.231Z,99753.78
2023-02-19T01:53:23.928Z,99754.73
2023-02-19T01:56:01.112Z,99752.31
2023-02-19T01:58:38.476Z,99749.50
2023-02-19T02:01:13.392Z,99752.79
2023-02-19T02:03:50.862Z,99749.73
2023-02-19T02:06:28.004Z,99747.88
2023-02-19T02:09:21.637Z,99751.55
2023-02-19T02:11:56.883Z,99751.30
2023-02-19T02:14:35.258Z,99753.44
2023-02-19T02:17:17.916Z,99746.01
2023-02-19T02:20:15.630Z,99745.74
2023-02-19T02:22:56.598Z,99745.04
2023-02-19T02:25:57.932Z,99747.65
2023-02-19T02:28:51.431Z,99746.88
2023-02-19T02:31:30.690Z,99746.51
2023-02-19T02:34:09.363Z,99751.04
2023-02-19T02:36:46.082Z,99754.31
2023-02-19T02:39:24.318Z,99759.21
2023-02-19T02:42:19.253Z,99762.45
2023-02-19T02:45:17.529Z,99755.55
2023-02-19T02:47:56.307Z,99751.74
2023-02-19T02:50:36.682Z,99749.38
2023-02-19T02:53:33.639Z,99750.53
2023-02-19T02:56:09.708Z,99749.73
2023-02-19T02:58:43.959Z,99748.23
2023-02-19T03:01:39.859Z,99743.52
2023-02-19T03:04:17.436Z,99740.20
2023-02-19T03:06:52.570Z,99735.64
2023-02-19T03:09:34.265Z,99734.41
2023-02-19T03:12:28.873Z,99736.73
2023-02-19T03:15:37.631Z,99735.27
2023-02-19T03:18:34.661Z,99737.42
2023-02-19T03:21:11.208Z,99740.98
2023-02-19T03:24:13.159Z,99742.89
2023-02-19T03:26:54.360Z,99743.40
2023-02-19T03:29:33.405Z,99751.41
2023-02-19T03:32:14.501Z,99749.22
2023-02-19T03:34:54.908Z,99747.10
2023-02-19T03:37:35.290Z,99746.29
2023-02-19T03:40:10.442Z,99741.14
2023-02-19T03:42:56.161Z,99737.30
2023-02-19T03:45:38.318Z,99738.80
2023-02-19T03:48:24.515Z,99735.35
2023-02-19T03:51:09.159Z,99730.48
2023-02-19T03:53:54.524Z,99724.33
2023-02-19T03:56:34.730Z,99722.02
2023-02-19T03:59:15.227Z,99722.59
2023-02-19T04:01:54.047Z,99720.38
2023-02-19T04:04:32.918Z,99718.09
2023-02-19T04:07:08.606Z,99717.58
2023-02-19T04:09:47.211Z,99716.58
2023-02-19T04:12:25.336Z,99721.69
2023-02-19T04:15:05.373Z,99722.15
2023-02-19T04:17:43.486Z,99720.41
2023-02-19T04:20:18.995Z,99714.34
2023-02-19T04:22:53.137Z,99708.90
2023-02-19T04:25:28.472Z,99709.17
2023-02-19T04:28:03.083Z,99701.57
2023-02-19T04:30:36.818Z,99701.49
2023-02-19T04:33:10.333Z,99701.86
2023-02-19T04:35:44.013Z,99696.21
2023-02-19T04:38:17.941Z,99696.54
2023-02-19T04:40:52.793Z,99698.77
2023-02-19T04:43:26.582Z,99692.78
2023-02-19T04:46:03.481Z,99689.15
2023-02-19T04:48:36.946Z,99697.14
2023-02-19T04:51:12.022Z,99704.85
2023-02-19T04:53:45.700Z,99710.67
2023-02-19T04:56:20.526Z,99711.41
2023-02-19T04:58:54.130Z,99708.08
2023-02-19T05:01:28.010Z,99704.14
2023-02-19T05:04:01.595Z,99691.22
2023-02-19T05:06:35.328Z,99690.54
2023-02-19T05:09:09.162Z,99693.27
2023-02-19T05:11:42.979Z,99695.77
2023-02-19T05:14:17.479Z,99698.38
2023-02-19T05:16:51.107Z,99695.77
2023-02-19T05:19:24.935Z,99692.45
2023-02-19T05:21:58.459Z,99686.08
2023-02-19T05:24:32.327Z,99685.33
2023-02-19T05:27:05.850Z,99686.48
2023-02-19T05:29:39.689Z,99690.81
2023-02-19T05:32:13.806Z,99689.55
2023-02-19T05:34:47.619Z,99680.98
2023-02-19T05:37:21.045Z,99676.02
2023-02-19T05:39:54.981Z,99674.50
2023-02-19T05:42:28.380Z,99670.27
2023-02-19T05:45:02.378Z,99673.16
2023-02-19T05:47:35.942Z,99677.46
2023-02-19T05:50:10.597Z,99671.25
2023-02-19T05:52:44.833Z,99665.95
2023-02-19T05:55:18.819Z,99675.35
2023-02-19T05:57:52.681Z,99678.69
2023-02-19T06:00:27.802Z,99679.11
2023-02-19T06:03:01.522Z,99679.42
2023-02-19T06:05:35.751Z,99679.13
2023-02-19T06:08:09.587Z,99677.14
2023-02-19T06:10:43.595Z,99676.37
2023-02-19T06:13:17.902Z,99678.65
2023-02-19T06:15:51.700Z,99677.89
2023-02-19T06:18:25.230Z,99683.03
2023-02-19T06:21:02.150Z,99686.04
2023-02-19T06:23:36.279Z,99688.21
2023-02-19T06:26:14.866Z,99692.25
2023-02-19T06:28:50.185Z,99694.29
2023-02-19T06:31:24.820Z,99696.44
2023-02-19T06:33:58.501Z,99699.06
2023-02-19T06:36:32.618Z,99700.41
2023-02-19T06:39:06.924Z,99696.94
2023-02-19T06:41:40.524Z,99694.54
2023-02-19T06:44:13.921Z,99696.86
2023-02-19T06:46:47.246Z,99692.98
2023-02-19T06:49:21.016Z,99691.35
2023-02-19T06:51:54.781Z,99684.86
2023-02-19T06:54:29.252Z,99683.94
2023-02-19T06:57:03.657Z,99689.75
2023-02-19T06:59:37.282Z,99691.66
2023-02-19T07:02:12.208Z,99695.58
2023-02-19T07:04:45.926Z,99701.55
2023-02-19T07:07:19.603Z,99703.00
2023-02-19T07:09:53.235Z,99706.18
2023-02-19T07:12:26.696Z,99707.01
2023-02-19T07:15:00.355Z,99707.15
2023-02-19T07:17:33.956Z,99709.04
2023-02-19T07:20:08.363Z,99707.48
2023-02-19T07:22:42.173Z,99712.61
2023-02-19T07:25:15.651Z,99716.08
2023-02-19T07:27:49.046Z,99714.52
2023-02-19T07:30:23.222Z,99714.81
2023-02-19T07:32:57.056Z,99715.70
2023-02-19T07:35:51.626Z,99717.71
2023-02-19T07:38:26.941Z,99716.84
2023-02-19T07:41:02.301Z,99715.16
2023-02-19T07:43:38.045Z,99716.47
2023-02-19T07:46:14.822Z,99716.13
2023-02-19T07:48:48.970Z,99717.62
2023-02-19T07:51:23.710Z,99723.20
2023-02-19T07:53:57.466Z,99723.45
2023-02-19T07:56:31.156Z,99719.61
2023-02-19T07:59:06.161Z,99718.98
2023-02-19T08:01:57.308Z,99720.98
2023-02-19T08:04:31.088Z,99722.58
2023-02-19T08:07:05.772Z,99728.73
2023-02-19T08:09:39.540Z,99727.61
2023-02-19T08:12:32.542Z,99731.98
2023-02-19T08:15:06.879Z,99731.19
2023-02-19T08:17:40.583Z,99731.16
2023-02-19T08:20:14.726Z,99733.74
2023-02-19T08:22:48.650Z,99735.11
2023-02-19T08:25:22.423Z,99739.27
2023-02-19T08:27:56.400Z,99742.44
2023-02-19T08:30:30.985Z,99744.61
2023-02-19T08:33:06.972Z,99746.30
2023-02-19T08:35:40.426Z,99743.68
2023-02-19T08:38:16.660Z,99746.10
2023-02-19T08:40:50.657Z,99748.95
2023-02-19T08:43:24.365Z,99749.36
2023-02-19T08:45:58.226Z,99747.38
2023-02-19T08:48:32.021Z,99747.29
2023-02-19T08:51:08.961Z,99749.42
2023-02-19T08:53:44.022Z,99749.80
2023-02-19T08:56:19.070Z,99747.08
2023-02-19T08:58:52.797Z,99744.68
2023-02-19T09:01:26.874Z,99742.36
2023-02-19T09:04:00.725Z,99744.69
2023-02-19T09:06:34.246Z,99741.27
2023-02-19T09:09:08.368Z,99740.14
2023-02-19T09:11:43.952Z,99743.33
2023-02-19T09:14:17.364Z,99743.02
2023-02-19T09:16:50.793Z,99747.14
2023-02-19T09:19:24.525Z,99751.14
2023-02-19T09:21:58.588Z,99750.80
2023-02-19T09:24:32.438Z,99751.01
2023-02-19T09:27:05.888Z,99752.16
2023-02-19T09:29:39.528Z,99753.98
2023-02-19T09:32:13.985Z,99755.34
2023-02-19T09:34:48.262Z,99755.86
2023-02-19T09:37:26.680Z,99754.58
2023-02-19T09:39:59.198Z,99750.04
2023-02-19T09:42:34.852Z,99754.67
2023-02-19T09:45:10.240Z,99758.84
2023-02-19T09:47:45.044Z,99759.77
2023-02-19T09:50:23.869Z,99763.86
2023-02-19T09:52:59.996Z,99765.56
2023-02-19T09:55:39.088Z,99766.09
2023-02-19T09:58:25.002Z,99765.11
2023-02-19T10:01:00.585Z,99761.78
2023-02-19T10:03:41.179Z,99760.65
2023-02-19T10:06:22.903Z,99759.90
2023-02-19T10:09:07.929Z,99756.58
2023-02-19T10:11:42.110Z,99759.84
2023-02-19T10:14:21.220Z,99760.07
2023-02-19T10:16:56.993Z,99756.27
2023-02-19T10:19:31.925Z,99754.94
2023-02-19T10:22:06.754Z,99756.59
2023-02-19T10:24:59.520Z,99759.63
2023-02-19T10:27:34.212Z,99763.67
2023-02-19T10:30:20.123Z,99763.95
2023-02-19T10:33:06.047Z,99765.75
2023-02-19T10:35:53.604Z,99772.45
2023-02-19T10:38:31.954Z,99770.64
2023-02-19T10:41:09.676Z,99772.66
2023-02-19T10:43:46.282Z,99775.21
2023-02-19T10:46:24.046Z,99774.02
2023-02-19T10:49:01.195Z,99772.81
2023-02-19T10:51:42.979Z,99774.43
2023-02-19T10:54:23.527Z,99776.91
2023-02-19T10:57:17.975Z,99781.84
2023-02-19T10:59:58.741Z,99781.80
2023-02-19T11:02:34.325Z,99782.48
2023-02-19T11:05:22.247Z,99781.83
2023-02-19T11:07:58.803Z,99784.36
2023-02-19T11:10:44.462Z,99786.87
2023-02-19T11:13:23.795Z,99785.60
2023-02-19T11:16:00.066Z,99784.77
2023-02-19T11:18:37.150Z,99777.21
2023-02-19T11:21:25.168Z,99787.45
2023-02-19T11:24:00.875Z,99790.46
2023-02-19T11:26:38.581Z,99789.80
2023-02-19T11:29:24.779Z,99786.83
2023-02-19T11:32:07.049Z,99793.48
2023-02-19T11:34:41.564Z,99790.42
2023-02-19T11:37:18.623Z,99797.69
2023-02-19T11:39:54.375Z,99796.49
2023-02-19T11:42:51.112Z,99794.08
2023-02-19T11:45:40.287Z,99795.25
2023-02-19T11:48:38.718Z,99795.08
2023-02-19T11:51:33.033Z,99797.52
2023-02-19T11:54:18.794Z,99795.80
2023-02-19T11:57:02.193Z,99795.73
2023-02-19T11:59:44.154Z,99796.44
2023-02-19T12:02:50.655Z,99794.01
2023-02-19T12:05:37.462Z,99796.33
2023-02-19T12:08:38.224Z,99798.86
2023-02-19T12:11:32.405Z,99803.06
2023-02-19T12:14:47.793Z,99806.33
2023-02-19T12:17:45.304Z,99813.34
2023-02-19T12:20:31.990Z,99817.94
2023-02-19T12:23:32.083Z,99821.87
2023-02-19T12:26:17.592Z,99824.14
2023-02-19T12:29:22.181Z,99827.23
2023-02-19T12:32:14.138Z,99828.80
2023-02-19T12:35:14.346Z,99822.61
2023-02-19T12:38:00.926Z,99823.86
2023-02-19T12:40:49.868Z,99824.88
2023-02-19T12:43:28.349Z,99829.15
2023-02-19T12:46:06.649Z,99839.39
2023-02-19T12:48:49.953Z,99844.95
2023-02-19T12:51:29.315Z,99850.64
2023-02-19T12:54:09.238Z,99852.70
2023-02-19T12:56:49.546Z,99852.04
2023-02-19T12:59:29.513Z,99854.48
2023-02-19T13:02:12.812Z,99861.21
2023-02-19T13:04:53.957Z,99866.56
2023-02-19T13:07:35.129Z,99867.07
2023-02-19T13:10:20.170Z,99867.71
2023-02-19T13:12:57.030Z,99867.84
2023-02-19T13:15:40.625Z,99868.18
2023-02-19T13:18:23.566Z,99861.24
2023-02-19T13:21:01.483Z,99864.02
2023-02-19T13:23:58.631Z,99867.66
2023-02-19T13:26:52.345Z,99875.45
2023-02-19T13:29:41.633Z,99878.55
2023-02-19T13:32:39.828Z,99879.56
2023-02-19T13:35:41.640Z,99885.14
2023-02-19T13:38:17.401Z,99883.57
2023-02-19T13:41:05.745Z,99881.88
2023-02-19T13:43:44.099Z,99884.38
2023-02-19T13:46:20.069Z,99888.83
2023-02-19T13:49:44.352Z,99898.86
2023-02-19T13:52:42.708Z,99909.55
2023-02-19T13:55:53.555Z,99913.16
2023-02-19T13:59:02.749Z,99911.16
2023-02-19T14:02:13.997Z,99918.71
2023-02-19T14:04:54.933Z,99920.98
2023-02-19T14:07:53.461Z,99917.52
2023-02-19T14:11:05.514Z,99921.23
2023-02-19T14:14:08.313Z,99924.80
2023-02-19T14:17:05.467Z,99931.09
2023-02-19T14:19:53.520Z,99942.02
2023-02-19T14:22:44.796Z,99943.22
2023-02-19T14:25:36.044Z,99942.16
2023-02-19T14:28:19.255Z,99939.54
2023-02-19T14:30:55.569Z,99937.88
2023-02-19T14:33:35.792Z,99931.13
2023-02-19T14:36:30.081Z,99931.48
2023-02-19T14:39:08.295Z,99936.02
2023-02-19T14:41:48.775Z,99938.02
2023-02-19T14:44:27.659Z,99941.96
2023-02-19T14:47:07.220Z,99944.54
2023-02-19T14:49:48.389Z,99945.58
2023-02-19T14:52:31.190Z,99950.90
2023-02-19T14:55:11.946Z,99950.42
2023-02-19T14:57:50.829Z,99954.57
2023-02-19T15:00:32.711Z,99956.30
2023-02-19T15:03:21.745Z,99963.79
2023-02-19T15:06:08.352Z,99972.18
2023-02-19T15:08:48.670Z,99970.08
2023-02-19T15:11:28.374Z,99972.40
2023-02-19T15:14:09.050Z,99977.73
2023-02-19T15:16:44.929Z,99981.05
2023-02-19T15:19:21.183Z,99988.34
2023-02-19T15:21:56.556Z,99992.91
2023-02-19T15:24:36.938Z,99994.79
2023-02-19T15:27:24.432Z,99997.48
2023-02-19T15:30:01.273Z,100001.53
2023-02-19T15:32:37.634Z,100004.78
2023-02-19T15:35:27.427Z,100008.57
2023-02-19T15:38:05.451Z,100015.80
2023-02-19T15:40:47.321Z,100020.64
2023-02-19T15:43:29.271Z,100017.93
2023-02-19T15:46:11.555Z,100019.98
2023-02-19T15:48:59.509Z,100024.91
2023-02-19T15:51:42.085Z,100030.05
2023-02-19T15:54:27.245Z,100036.61
2023-02-19T15:57:18.238Z,100036.70
2023-02-19T15:59:59.212Z,100037.90
2023-02-19T16:02:37.832Z,100038.11
2023-02-19T16:05:27.256Z,100042.43
2023-02-19T16:08:24.610Z,100050.86
2023-02-19T16:11:02.448Z,100057.72
2023-02-19T16:13:38.383Z,100060.11
2023-02-19T16:16:27.553Z,100065.39
2023-02-19T16:19:06.641Z,100068.52
2023-02-19T16:21:48.997Z,100070.63
2023-02-19T16:24:33.793Z,100076.27
2023-02-19T16:27:11.322Z,100082.41
2023-02-19T16:29:55.633Z,100091.81
2023-02-19T16:32:32.036Z,100096.92
2023-02-19T16:35:08.505Z,100101.09
2023-02-19T16:38:00.038Z,100101.05
2023-02-19T16:41:01.594Z,100107.57
2023-02-19T16:43:44.431Z,100112.38
2023-02-19T16:46:21.313Z,100115.88
2023-02-19T16:48:57.638Z,100116.70
2023-02-19T16:51:38.280Z,100119.61
2023-02-19T16:54:15.741Z,100121.51
2023-02-19T16:56:59.586Z,100126.15
2023-02-19T16:59:38.874Z,100125.55
2023-02-19T17:02:23.002Z,100128.95
2023-02-19T17:04:59.845Z,100136.46
2023-02-19T17:07:37.938Z,100137.79
2023-02-19T17:10:24.934Z,100134.30
2023-02-19T17:13:01.305Z,100138.70
2023-02-19T17:15:37.296Z,100139.19
2023-02-19T17:18:15.080Z,100146.30
2023-02-19T17:20:57.880Z,100149.64
2023-02-19T17:23:36.719Z,100152.91
2023-02-19T17:26:16.903Z,100152.98
2023-02-19T17:28:55.778Z,100155.23
2023-02-19T17:31:32.546Z,100161.65
2023-02-19T17:34:08.998Z,100165.20
2023-02-19T17:36:46.632Z,100171.77
2023-02-19T17:39:24.269Z,100175.84
2023-02-19T17:41:58.687Z,100175.29
2023-02-19T17:44:41.028Z,100177.86
2023-02-19T17:47:20.563Z,100184.02
2023-02-19T17:50:02.546Z,100189.03
2023-02-19T17:52:38.395Z,100192.13
2023-02-19T17:55:14.315Z,100198.52
2023-02-19T17:57:56.878Z,100199.98
2023-02-19T18:00:39.996Z,100207.33
2023-02-19T18:03:19.638Z,100215.11
2023-02-19T18:05:55.689Z,100221.79
2023-02-19T18:08:32.224Z,100224.19
2023-02-19T18:11:17.926Z,100231.94
2023-02-19T18:13:54.059Z,100240.68
2023-02-19T18:16:32.191Z,100244.40
2023-02-19T18:19:13.844Z,100245.02
2023-02-19T18:21:58.630Z,100249.27
2023-02-19T18:24:34.429Z,100247.61
2023-02-19T18:27:09.638Z,100248.60
2023-02-19T18:29:48.546Z,100249.99
2023-02-19T18:32:29.199Z,100251.60
2023-02-19T18:35:13.000Z,100249.72
2023-02-19T18:37:51.678Z,100256.09
2023-02-19T18:40:29.892Z,100259.59
2023-02-19T18:43:07.880Z,100262.64
2023-02-19T18:45:46.370Z,100263.55
2023-02-19T18:48:23.948Z,100263.79
2023-02-19T18:51:02.061Z,100265.10
2023-02-19T18:53:41.089Z,100271.99
2023-02-19T18:56:18.314Z,100273.48
2023-02-19T18:58:55.341Z,100271.51
2023-02-19T19:01:32.119Z,100282.42
2023-02-19T19:04:10.979Z,100292.70
2023-02-19T19:06:50.167Z,100290.30
2023-02-19T19:09:31.942Z,100294.50
2023-02-19T19:12:09.011Z,100295.27
2023-02-19T19:14:44.509Z,100299.63
2023-02-19T19:17:25.422Z,100303.92
2023-02-19T19:20:02.553Z,100309.17
2023-02-19T19:22:42.825Z,100311.52
2023-02-19T19:25:21.809Z,100308.98
2023-02-19T19:28:01.953Z,100311.48
2023-02-19T19:30:38.434Z,100315.83
2023-02-19T19:33:24.206Z,100318.02
2023-02-19T19:36:00.599Z,100321.40
2023-02-19T19:38:37.937Z,100319.81
2023-02-19T19:41:17.572Z,100320.39
2023-02-19T19:43:59.085Z,100328.30
2023-02-19T19:46:37.030Z,100332.61
2023-02-19T19:49:14.675Z,100338.80
2023-02-19T19:51:52.286Z,100337.95
2023-02-19T19:54:29.399Z,100347.01
2023-02-19T19:57:18.764Z,100341.86
2023-02-19T20:00:01.048Z,100342.26
2023-02-19T20:02:39.136Z,100338.89
2023-02-19T20:05:25.032Z,100343.55
2023-02-19T20:08:02.311Z,100341.88
2023-02-19T20:10:40.563Z,100341.48
2023-02-19T20:13:24.690Z,100338.92
2023-02-19T20:16:03.739Z,100339.24
2023-02-19T20:18:42.461Z,100344.51
2023-02-19T20:21:22.676Z,100342.38
2023-02-19T20:24:03.967Z,100343.94
2023-02-19T20:26:46.917Z,100348.86
2023-02-19T20:29:24.151Z,100352.15
2023-02-19T20:32:03.442Z,100356.98
2023-02-19T20:34:41.973Z,100359.85
2023-02-19T20:37:20.183Z,100363.26
2023-02-19T20:39:56.404Z,100365.01
2023-02-19T20:42:37.362Z,100369.06
2023-02-19T20:45:17.064Z,100376.73
2023-02-19T20:47:56.829Z,100386.71
2023-02-19T20:50:32.062Z,100386.39
2023-02-19T20:53:09.057Z,100389.82
2023-02-19T20:55:45.596Z,100391.51
2023-02-19T20:58:22.916Z,100389.16
2023-02-19T21:00:58.356Z,100394.98
2023-02-19T21:03:34.433Z,100403.55
2023-02-19T21:06:11.149Z,100409.69
2023-02-19T21:08:47.935Z,100416.45
2023-02-19T21:11:24.438Z,100416.86
2023-02-19T21:14:08.062Z,100415.19
2023-02-19T21:16:44.072Z,100416.23
2023-02-19T21:19:26.201Z,100424.17
2023-02-19T21:22:04.218Z,100434.83
2023-02-19T21:24:39.936Z,100433.55
2023-02-19T21:27:19.677Z,100431.70
2023-02-19T21:29:55.463Z,100425.89
2023-02-19T21:32:32.712Z,100427.80
2023-02-19T21:35:10.067Z,100418.61
2023-02-19T21:37:46.516Z,100419.14
2023-02-19T21:40:23.771Z,100421.09
2023-02-19T21:42:58.637Z,100421.69
2023-02-19T21:45:32.891Z,100420.85
2023-02-19T21:48:10.019Z,100417.37
2023-02-19T21:50:46.249Z,100419.16
2023-02-19T21:53:21.242Z,100420.70
2023-02-19T21:55:58.799Z,100427.66
2023-02-19T21:58:33.854Z,100429.77
2023-02-19T22:01:07.945Z,100431.08
2023-02-19T22:03:41.636Z,100431.39
2023-02-19T22:06:15.657Z,100434.11
2023-02-19T22:08:49.185Z,100431.10
2023-02-19T22:11:23.010Z,100431.33
2023-02-19T22:13:56.799Z,100441.48
2023-02-19T22:16:30.841Z,100448.55
2023-02-19T22:19:04.797Z,100446.58
2023-02-19T22:21:37.983Z,100448.44
2023-02-19T22:24:19.408Z,100453.30
2023-02-19T22:26:57.174Z,100457.65
2023-02-19T22:29:31.089Z,100462.89
2023-02-19T22:32:05.029Z,100465.00
2023-02-19T22:34:42.305Z,100466.58
2023-02-19T22:37:16.054Z,100463.40
2023-02-19T22:39:49.419Z,100455.36
2023-02-19T22:42:24.511Z,100451.64
2023-02-19T22:44:58.412Z,100449.50
2023-02-19T22:47:32.108Z,100449.66
2023-02-19T22:50:06.344Z,100448.28
2023-02-19T22:52:39.785Z,100446.36
2023-02-19T22:55:13.342Z,100450.19
2023-02-19T22:57:47.099Z,100444.06
2023-02-19T23:00:22.844Z,100451.22
2023-02-19T23:02:56.453Z,100452.05
2023-02-19T23:05:30.285Z,100448.00
2023-02-19T23:08:03.971Z,100444.49
2023-02-19T23:10:37.753Z,100442.30
2023-02-19T23:13:11.529Z,100439.75
2023-02-19T23:15:45.453Z,100430.73
2023-02-19T23:18:19.122Z,100431.60
2023-02-19T23:20:52.685Z,100441.20
2023-02-19T23:23:26.535Z,100447.02
2023-02-19T23:26:00.883Z,100449.44
2023-02-19T23:28:34.922Z,100448.31
2023-02-19T23:31:08.799Z,100456.67
2023-02-19T23:33:44.048Z,100461.98
2023-02-19T23:36:18.073Z,100458.66
2023-02-19T23:38:51.953Z,100456.46
2023-02-19T23:41:25.371Z,100456.69
2023-02-19T23:43:58.801Z,100457.50
2023-02-19T23:46:32.484Z,100452.98
2023-02-19T23:49:06.013Z,100445.24
2023-02-19T23:51:39.880Z,100442.09
2023-02-19T23:54:13.518Z,100433.29
2023-02-19T23:56:47.298Z,100431.19
2023-02-19T23:59:21.256Z,100430.95
